sensor_id;sensor_type;location;lat;lon;timestamp;pressure;altitude;pressure_sealevel;temperature;humidity
21449;BME280;10885;52.830;13.788;2023-06-14T05:34:45;101479.66;;;16.19;65.80
21449;BME280;10885;52.830;13.788;2023-06-14T05:40:07;101482.19;;;16.35;64.54
21449;BME280;10885;52.830;13.788;2023-06-14T05:45:29;101479.75;;;16.56;64.18
21449;BME280;10885;52.830;13.788;2023-06-14T05:50:50;101480.47;;;16.72;63.05
21449;BME280;10885;52.830;13.788;2023-06-14T05:56:12;101495.03;;;16.87;62.67
21449;BME280;10885;52.830;13.788;2023-06-14T06:01:33;101494.50;;;16.95;62.82
21449;BME280;10885;52.830;13.788;2023-06-14T06:06:57;101495.81;;;17.04;61.84
21449;BME280;10885;52.830;13.788;2023-06-14T06:12:19;101487.16;;;17.43;60.81
21449;BME280;10885;52.830;13.788;2023-06-14T06:17:40;101493.03;;;17.79;58.92
21449;BME280;10885;52.830;13.788;2023-06-14T06:23:10;101495.28;;;18.12;57.88
21449;BME280;10885;52.830;13.788;2023-06-14T06:28:31;101491.50;;;18.04;57.20
21449;BME280;10885;52.830;13.788;2023-06-14T06:33:55;101491.31;;;17.80;57.43
21449;BME280;10885;52.830;13.788;2023-06-14T06:39:16;101489.59;;;17.80;57.74
21449;BME280;10885;52.830;13.788;2023-06-14T06:44:37;101499.41;;;18.28;56.50
21449;BME280;10885;52.830;13.788;2023-06-14T06:50:00;101486.41;;;18.49;55.06
21449;BME280;10885;52.830;13.788;2023-06-14T06:55:22;101489.28;;;19.00;53.70
21449;BME280;10885;52.830;13.788;2023-06-14T07:00:43;101490.59;;;19.37;52.44
21449;BME280;10885;52.830;13.788;2023-06-14T07:06:04;101501.59;;;20.30;50.35
21449;BME280;10885;52.830;13.788;2023-06-14T07:11:26;101499.16;;;21.22;47.43
21449;BME280;10885;52.830;13.788;2023-06-14T07:16:46;101515.72;;;21.53;46.38
21449;BME280;10885;52.830;13.788;2023-06-14T07:22:08;101513.28;;;21.60;46.20
21449;BME280;10885;52.830;13.788;2023-06-14T07:27:29;101519.25;;;21.88;44.94
21449;BME280;10885;52.830;13.788;2023-06-14T07:32:50;101523.66;;;21.57;45.38
21449;BME280;10885;52.830;13.788;2023-06-14T07:38:12;101517.47;;;21.23;46.58
21449;BME280;10885;52.830;13.788;2023-06-14T07:43:33;101521.81;;;21.23;46.09
21449;BME280;10885;52.830;13.788;2023-06-14T07:48:54;101515.88;;;21.59;45.68
21449;BME280;10885;52.830;13.788;2023-06-14T07:54:15;101515.28;;;22.37;44.43
21449;BME280;10885;52.830;13.788;2023-06-14T07:59:37;101511.53;;;23.02;41.81
21449;BME280;10885;52.830;13.788;2023-06-14T08:04:58;101517.97;;;23.19;41.30
21449;BME280;10885;52.830;13.788;2023-06-14T08:10:20;101536.13;;;23.54;40.24
21449;BME280;10885;52.830;13.788;2023-06-14T08:15:41;101522.34;;;23.65;40.40
21449;BME280;10885;52.830;13.788;2023-06-14T08:21:03;101522.38;;;23.20;40.77
21449;BME280;10885;52.830;13.788;2023-06-14T08:26:27;101513.97;;;22.94;41.27
21449;BME280;10885;52.830;13.788;2023-06-14T08:31:52;101508.72;;;22.94;41.31
21449;BME280;10885;52.830;13.788;2023-06-14T08:37:13;101516.41;;;22.87;40.75
21449;BME280;10885;52.830;13.788;2023-06-14T08:42:36;101513.28;;;23.03;40.65
21449;BME280;10885;52.830;13.788;2023-06-14T08:47:59;101509.53;;;22.52;41.76
21449;BME280;10885;52.830;13.788;2023-06-14T08:53:21;101499.38;;;22.28;42.43
21449;BME280;10885;52.830;13.788;2023-06-14T08:58:44;101501.31;;;22.35;42.78
21449;BME280;10885;52.830;13.788;2023-06-14T09:04:06;101501.63;;;22.49;41.37
21449;BME280;10885;52.830;13.788;2023-06-14T09:09:27;101513.34;;;22.30;41.19
21449;BME280;10885;52.830;13.788;2023-06-14T09:14:48;101517.06;;;22.76;40.38
21449;BME280;10885;52.830;13.788;2023-06-14T09:20:10;101520.28;;;23.04;39.50
21449;BME280;10885;52.830;13.788;2023-06-14T09:25:31;101518.22;;;23.30;38.66
21449;BME280;10885;52.830;13.788;2023-06-14T09:31:00;101518.09;;;23.70;37.91
21449;BME280;10885;52.830;13.788;2023-06-14T09:36:24;101519.78;;;24.16;37.03
21449;BME280;10885;52.830;13.788;2023-06-14T09:41:45;101518.75;;;24.07;36.98
21449;BME280;10885;52.830;13.788;2023-06-14T09:47:07;101516.13;;;24.60;35.51
21449;BME280;10885;52.830;13.788;2023-06-14T09:52:28;101514.47;;;24.65;36.01
21449;BME280;10885;52.830;13.788;2023-06-14T09:57:51;101519.78;;;24.73;35.25
21449;BME280;10885;52.830;13.788;2023-06-14T10:03:16;101510.97;;;25.33;34.06
21449;BME280;10885;52.830;13.788;2023-06-14T10:08:42;101502.28;;;26.35;32.78
21449;BME280;10885;52.830;13.788;2023-06-14T10:14:05;101499.31;;;27.26;30.43
21449;BME280;10885;52.830;13.788;2023-06-14T10:19:36;101505.31;;;27.02;31.61
21449;BME280;10885;52.830;13.788;2023-06-14T10:24:59;101495.75;;;27.21;30.53
21449;BME280;10885;52.830;13.788;2023-06-14T10:30:25;101487.00;;;27.29;30.48
21449;BME280;10885;52.830;13.788;2023-06-14T10:35:46;101484.44;;;27.51;29.29
21449;BME280;10885;52.830;13.788;2023-06-14T10:41:08;101477.19;;;29.14;26.62
21449;BME280;10885;52.830;13.788;2023-06-14T10:46:30;101472.59;;;29.44;26.96
21449;BME280;10885;52.830;13.788;2023-06-14T10:51:52;101468.81;;;29.82;25.90
21449;BME280;10885;52.830;13.788;2023-06-14T10:57:13;101462.41;;;30.09;25.34
21449;BME280;10885;52.830;13.788;2023-06-14T11:14:24;101450.91;;;30.15;23.58
21449;BME280;10885;52.830;13.788;2023-06-14T11:19:45;101444.72;;;31.57;22.31
21449;BME280;10885;52.830;13.788;2023-06-14T11:25:09;101436.88;;;32.05;20.96
21449;BME280;10885;52.830;13.788;2023-06-14T11:30:30;101422.81;;;33.28;21.06
21449;BME280;10885;52.830;13.788;2023-06-14T11:35:52;101434.81;;;33.05;20.32
21449;BME280;10885;52.830;13.788;2023-06-14T11:41:13;101421.25;;;30.66;22.52
21449;BME280;10885;52.830;13.788;2023-06-14T11:46:35;101411.66;;;30.60;22.67
21449;BME280;10885;52.830;13.788;2023-06-14T11:51:56;101404.41;;;31.37;21.70
21449;BME280;10885;52.830;13.788;2023-06-14T11:57:18;101401.31;;;31.07;21.59
21449;BME280;10885;52.830;13.788;2023-06-14T12:02:39;101386.00;;;30.65;22.45
21449;BME280;10885;52.830;13.788;2023-06-14T12:08:04;101385.56;;;30.98;21.24
21449;BME280;10885;52.830;13.788;2023-06-14T12:13:28;101379.22;;;33.73;18.76
21449;BME280;10885;52.830;13.788;2023-06-14T12:18:49;101374.50;;;34.46;17.83
21449;BME280;10885;52.830;13.788;2023-06-14T12:24:11;101376.41;;;34.41;17.39
21449;BME280;10885;52.830;13.788;2023-06-14T12:29:33;101360.16;;;32.80;18.80
21449;BME280;10885;52.830;13.788;2023-06-14T12:34:54;101352.38;;;33.80;17.97
21449;BME280;10885;52.830;13.788;2023-06-14T12:40:15;101351.41;;;34.17;16.97
21449;BME280;10885;52.830;13.788;2023-06-14T12:45:37;101350.31;;;33.59;17.24
21449;BME280;10885;52.830;13.788;2023-06-14T12:50:58;101352.34;;;30.75;19.49
21449;BME280;10885;52.830;13.788;2023-06-14T12:56:19;101346.06;;;29.17;22.06
21449;BME280;10885;52.830;13.788;2023-06-14T13:01:41;101343.91;;;28.20;22.95
21449;BME280;10885;52.830;13.788;2023-06-14T13:07:03;101349.22;;;28.07;24.92
21449;BME280;10885;52.830;13.788;2023-06-14T13:12:24;101350.06;;;28.23;24.99
21449;BME280;10885;52.830;13.788;2023-06-14T13:17:46;101347.72;;;29.28;23.55
21449;BME280;10885;52.830;13.788;2023-06-14T13:23:09;101349.19;;;28.16;25.31
21449;BME280;10885;52.830;13.788;2023-06-14T13:28:30;101352.66;;;26.74;26.88
21449;BME280;10885;52.830;13.788;2023-06-14T13:33:52;101340.13;;;26.13;28.02
21449;BME280;10885;52.830;13.788;2023-06-14T13:39:13;101337.16;;;25.60;29.11
21449;BME280;10885;52.830;13.788;2023-06-14T13:44:35;101336.59;;;25.02;29.66
21449;BME280;10885;52.830;13.788;2023-06-14T13:49:56;101336.22;;;24.65;30.29
21449;BME280;10885;52.830;13.788;2023-06-14T13:55:17;101353.31;;;24.35;31.99
21449;BME280;10885;52.830;13.788;2023-06-14T14:00:38;101344.44;;;24.27;32.51
21449;BME280;10885;52.830;13.788;2023-06-14T14:06:01;101342.59;;;24.20;34.03
21449;BME280;10885;52.830;13.788;2023-06-14T14:11:23;101343.50;;;24.22;35.12
21449;BME280;10885;52.830;13.788;2023-06-14T14:16:44;101339.03;;;24.13;34.57
21449;BME280;10885;52.830;13.788;2023-06-14T14:22:05;101342.50;;;24.12;34.67
21449;BME280;10885;52.830;13.788;2023-06-14T14:27:26;101344.41;;;24.24;35.24
21449;BME280;10885;52.830;13.788;2023-06-14T14:32:47;101338.94;;;24.06;33.41
21449;BME280;10885;52.830;13.788;2023-06-14T14:38:09;101344.00;;;23.95;33.62
21449;BME280;10885;52.830;13.788;2023-06-14T14:43:30;101346.75;;;24.04;35.09
21449;BME280;10885;52.830;13.788;2023-06-14T14:48:51;101343.66;;;23.75;34.61
21449;BME280;10885;52.830;13.788;2023-06-14T14:54:12;101361.50;;;23.44;34.22
21449;BME280;10885;52.830;13.788;2023-06-14T14:59:33;101356.34;;;23.01;35.30
21449;BME280;10885;52.830;13.788;2023-06-14T15:04:54;101353.28;;;22.77;35.96
21449;BME280;10885;52.830;13.788;2023-06-14T15:10:17;101351.38;;;22.68;36.19
21449;BME280;10885;52.830;13.788;2023-06-14T15:15:39;101352.09;;;22.61;36.57
21449;BME280;10885;52.830;13.788;2023-06-14T15:21:00;101348.53;;;22.57;36.64
21449;BME280;10885;52.830;13.788;2023-06-14T15:26:21;101346.47;;;22.41;36.75
21449;BME280;10885;52.830;13.788;2023-06-14T15:31:44;101351.50;;;22.33;37.28
21449;BME280;10885;52.830;13.788;2023-06-14T15:37:06;101357.47;;;22.28;37.86
21449;BME280;10885;52.830;13.788;2023-06-14T15:42:27;101353.91;;;22.24;38.21
21449;BME280;10885;52.830;13.788;2023-06-14T15:47:48;101359.94;;;22.21;37.81
21449;BME280;10885;52.830;13.788;2023-06-14T15:53:10;101350.50;;;22.27;37.45
21449;BME280;10885;52.830;13.788;2023-06-14T15:58:31;101357.44;;;22.24;37.45
21449;BME280;10885;52.830;13.788;2023-06-14T16:03:53;101345.19;;;22.23;37.25
21449;BME280;10885;52.830;13.788;2023-06-14T16:09:14;101347.00;;;22.24;37.51
21449;BME280;10885;52.830;13.788;2023-06-14T16:14:35;101342.41;;;22.16;37.72
21449;BME280;10885;52.830;13.788;2023-06-14T16:19:57;101349.25;;;22.11;38.07
21449;BME280;10885;52.830;13.788;2023-06-14T16:25:18;101348.34;;;22.09;37.84
21449;BME280;10885;52.830;13.788;2023-06-14T16:30:39;101350.91;;;22.07;38.02
21449;BME280;10885;52.830;13.788;2023-06-14T16:36:00;101348.22;;;22.04;38.63
21449;BME280;10885;52.830;13.788;2023-06-14T16:41:21;101350.97;;;22.10;38.06
21449;BME280;10885;52.830;13.788;2023-06-14T16:46:42;101350.13;;;22.11;38.17
21449;BME280;10885;52.830;13.788;2023-06-14T16:52:04;101348.34;;;22.10;38.24
21449;BME280;10885;52.830;13.788;2023-06-14T16:57:26;101349.28;;;22.12;38.21
21449;BME280;10885;52.830;13.788;2023-06-14T17:02:47;101346.78;;;22.17;38.19
21449;BME280;10885;52.830;13.788;2023-06-14T17:08:08;101351.22;;;22.21;38.12
21449;BME280;10885;52.830;13.788;2023-06-14T17:13:29;101350.28;;;22.17;38.21
21449;BME280;10885;52.830;13.788;2023-06-14T17:18:50;101357.22;;;22.17;38.27
21449;BME280;10885;52.830;13.788;2023-06-14T17:24:12;101356.22;;;22.12;38.73
21449;BME280;10885;52.830;13.788;2023-06-14T17:29:44;101356.19;;;22.09;38.61
21449;BME280;10885;52.830;13.788;2023-06-14T17:35:05;101357.09;;;22.12;38.32
21449;BME280;10885;52.830;13.788;2023-06-14T17:40:29;101358.94;;;22.15;38.29
21449;BME280;10885;52.830;13.788;2023-06-14T17:45:55;101358.84;;;22.12;38.44
21449;BME280;10885;52.830;13.788;2023-06-14T17:51:16;101361.22;;;22.01;39.06
21449;BME280;10885;52.830;13.788;2023-06-14T17:56:38;101359.34;;;21.95;39.07
21449;BME280;10885;52.830;13.788;2023-06-14T18:01:59;101359.16;;;21.88;39.29
21449;BME280;10885;52.830;13.788;2023-06-14T18:07:21;101366.94;;;21.86;39.17
21449;BME280;10885;52.830;13.788;2023-06-14T18:12:42;101352.88;;;21.79;39.34
21449;BME280;10885;52.830;13.788;2023-06-14T18:18:04;101354.50;;;21.74;39.07
21449;BME280;10885;52.830;13.788;2023-06-14T18:23:25;101371.09;;;21.78;38.63
21449;BME280;10885;52.830;13.788;2023-06-14T18:28:46;101379.03;;;21.81;38.85
21449;BME280;10885;52.830;13.788;2023-06-14T18:34:08;101357.72;;;21.64;39.02
21449;BME280;10885;52.830;13.788;2023-06-14T18:39:32;101364.25;;;21.47;41.63
21449;BME280;10885;52.830;13.788;2023-06-14T18:44:53;101363.91;;;21.34;41.01
21449;BME280;10885;52.830;13.788;2023-06-14T18:50:14;101373.25;;;21.26;40.24
21449;BME280;10885;52.830;13.788;2023-06-14T18:55:36;101372.34;;;21.24;41.35
21449;BME280;10885;52.830;13.788;2023-06-14T19:00:57;101372.28;;;21.21;41.44
21449;BME280;10885;52.830;13.788;2023-06-14T19:06:18;101371.09;;;21.10;40.97
21449;BME280;10885;52.830;13.788;2023-06-14T19:11:39;101372.94;;;21.14;40.43
21449;BME280;10885;52.830;13.788;2023-06-14T19:17:01;101366.72;;;21.09;40.53
21449;BME280;10885;52.830;13.788;2023-06-14T19:22:24;101371.31;;;21.17;40.81
21449;BME280;10885;52.830;13.788;2023-06-14T19:27:46;101372.19;;;21.18;41.25
21449;BME280;10885;52.830;13.788;2023-06-14T19:33:08;101378.22;;;21.17;41.68
21449;BME280;10885;52.830;13.788;2023-06-14T19:38:29;101384.47;;;21.22;40.89
21449;BME280;10885;52.830;13.788;2023-06-14T19:43:53;101388.00;;;21.24;41.95
21449;BME280;10885;52.830;13.788;2023-06-14T19:49:14;101392.94;;;21.15;41.89
21449;BME280;10885;52.830;13.788;2023-06-14T19:54:36;101386.25;;;20.93;41.88
21449;BME280;10885;52.830;13.788;2023-06-14T19:59:57;101404.16;;;20.80;42.21
21449;BME280;10885;52.830;13.788;2023-06-14T20:05:18;101399.47;;;20.69;42.45
21449;BME280;10885;52.830;13.788;2023-06-14T20:10:40;101398.28;;;20.57;42.94
21449;BME280;10885;52.830;13.788;2023-06-14T20:16:01;101397.19;;;20.51;43.14
21449;BME280;10885;52.830;13.788;2023-06-14T20:21:23;101398.16;;;20.54;42.75
21449;BME280;10885;52.830;13.788;2023-06-14T20:26:43;101400.50;;;20.45;44.04
21449;BME280;10885;52.830;13.788;2023-06-14T20:32:05;101397.69;;;20.37;44.00
21449;BME280;10885;52.830;13.788;2023-06-14T23:08:44;101382.41;;;17.80;52.81
21449;BME280;10885;52.830;13.788;2023-06-14T23:14:05;101373.63;;;17.76;53.26
21449;BME280;10885;52.830;13.788;2023-06-14T23:19:26;101367.88;;;17.62;53.56
21449;BME280;10885;52.830;13.788;2023-06-14T23:24:50;101374.69;;;17.60;53.79
21449;BME280;10885;52.830;13.788;2023-06-14T23:30:13;101368.13;;;17.47;54.23
21449;BME280;10885;52.830;13.788;2023-06-14T23:35:37;101371.75;;;17.51;54.58
21449;BME280;10885;52.830;13.788;2023-06-14T23:41:00;101369.53;;;17.39;54.97
21449;BME280;10885;52.830;13.788;2023-06-14T23:46:29;101381.34;;;17.54;53.76
21449;BME280;10885;52.830;13.788;2023-06-14T23:51:54;101376.47;;;17.40;54.92
21449;BME280;10885;52.830;13.788;2023-06-14T23:57:22;101376.72;;;17.25;55.24
